createdAt,value
2023-05-11T00:00:35.034Z,100916.03
2023-05-11T00:03:01.401Z,100918.75
2023-05-11T00:05:27.829Z,100914.69
2023-05-11T00:07:54.150Z,100914.41
2023-05-11T00:10:20.712Z,100918.22
2023-05-11T00:12:47.159Z,100908.91
2023-05-11T00:15:13.501Z,100915.94
2023-05-11T00:17:39.829Z,100922.78
2023-05-11T00:20:07.048Z,100914.59
2023-05-11T00:22:33.498Z,100914.84
2023-05-11T00:24:59.865Z,100918.91
2023-05-11T00:27:26.382Z,100918.06
2023-05-11T00:29:52.902Z,100923.53
2023-05-11T00:32:19.253Z,100924.63
2023-05-11T00:34:45.881Z,100924.03
2023-05-11T00:37:12.411Z,100921.09
2023-05-11T00:39:40.699Z,100927.31
2023-05-11T00:42:07.267Z,100933.31
2023-05-11T00:44:33.747Z,100922.97
2023-05-11T00:47:00.289Z,100925.66
2023-05-11T00:49:26.835Z,100919.59
2023-05-11T00:51:53.332Z,100922.09
2023-05-11T00:54:19.997Z,100924.78
2023-05-11T00:56:46.451Z,100927.25
2023-05-11T00:59:14.010Z,100927.53
2023-05-11T01:01:40.641Z,100926.75
2023-05-11T01:04:07.657Z,100922.84
2023-05-11T01:06:47.794Z,100929.38
2023-05-11T01:09:29.991Z,100921.75
2023-05-11T01:12:33.911Z,100928.56
2023-05-11T01:15:10.863Z,100917.63
2023-05-11T01:17:46.389Z,100921.13
2023-05-11T01:20:18.682Z,100925.47
2023-05-11T01:23:23.066Z,100916.47
2023-05-11T01:26:08.170Z,100916.16
2023-05-11T01:29:08.265Z,100920.50
2023-05-11T01:31:37.112Z,100915.00
2023-05-11T01:34:16.961Z,100921.56
2023-05-11T01:36:51.706Z,100919.16
2023-05-11T01:39:25.095Z,100922.19
2023-05-11T01:41:54.090Z,100914.31
2023-05-11T01:44:25.762Z,100914.50
2023-05-11T01:46:53.197Z,100918.28
2023-05-11T01:49:21.757Z,100907.38
2023-05-11T01:51:51.442Z,100921.88
2023-05-11T01:54:20.635Z,100916.66
2023-05-11T01:56:48.997Z,100912.47
2023-05-11T01:59:18.918Z,100923.03
2023-05-11T02:01:45.913Z,100923.03
2023-05-11T02:04:14.413Z,100923.31
2023-05-11T02:06:43.597Z,100930.44
2023-05-11T02:09:12.221Z,100929.63
2023-05-11T02:11:40.332Z,100934.53
2023-05-11T02:14:09.200Z,100926.88
2023-05-11T02:16:35.953Z,100933.09
2023-05-11T02:19:04.158Z,100928.50
2023-05-11T02:21:32.560Z,100937.16
2023-05-11T02:24:01.594Z,100937.44
2023-05-11T02:26:28.085Z,100938.84
2023-05-11T02:28:54.925Z,100939.34
2023-05-11T02:31:29.308Z,100936.59
2023-05-11T02:34:04.395Z,100942.84
2023-05-11T02:36:33.800Z,100940.41
2023-05-11T02:39:08.312Z,100944.22
2023-05-11T02:41:41.886Z,100942.84
2023-05-11T02:44:11.232Z,100937.34
2023-05-11T02:46:40.305Z,100934.09
2023-05-11T02:49:09.920Z,100938.47
2023-05-11T02:51:38.697Z,100947.72
2023-05-11T02:54:10.790Z,100946.88
2023-05-11T02:56:38.264Z,100940.13
2023-05-11T02:59:05.208Z,100951.31
2023-05-11T03:01:32.707Z,100940.41
2023-05-11T03:03:59.197Z,100943.44
2023-05-11T03:06:25.777Z,100944.78
2023-05-11T03:08:52.682Z,100942.06
2023-05-11T03:11:19.958Z,100944.47
2023-05-11T03:13:46.839Z,100939.28
2023-05-11T03:16:14.470Z,100942.56
2023-05-11T03:18:41.876Z,100942.78
2023-05-11T03:21:08.874Z,100939.28
2023-05-11T03:23:37.297Z,100942.56
2023-05-11T03:26:06.165Z,100938.47
2023-05-11T03:28:33.846Z,100939.81
2023-05-11T03:31:00.396Z,100935.97
2023-05-11T03:33:26.960Z,100935.16
2023-05-11T03:35:55.089Z,100935.78
2023-05-11T03:38:23.413Z,100930.84
2023-05-11T03:40:52.632Z,100927.06
2023-05-11T03:43:20.941Z,100930.81
2023-05-11T03:45:50.770Z,100936.53
2023-05-11T03:48:18.541Z,100929.50
2023-05-11T03:50:45.324Z,100926.84
2023-05-11T03:53:12.555Z,100928.53
2023-05-11T03:55:39.337Z,100929.06
2023-05-11T03:58:09.618Z,100926.09
2023-05-11T04:00:40.985Z,100919.22
2023-05-11T04:03:09.238Z,100919.53
2023-05-11T04:05:35.948Z,100916.00
2023-05-11T04:08:03.989Z,100915.50
2023-05-11T04:10:30.513Z,100921.19
2023-05-11T04:12:57.268Z,100919.84
2023-05-11T04:15:23.868Z,100908.38
2023-05-11T04:17:50.724Z,100913.28
2023-05-11T04:20:17.522Z,100922.09
2023-05-11T04:22:44.090Z,100932.38
2023-05-11T04:25:10.628Z,100921.47
2023-05-11T04:27:37.094Z,100930.84
2023-05-11T04:30:03.773Z,100921.84
2023-05-11T04:32:30.351Z,100924.75
2023-05-11T04:34:56.853Z,100934.03
2023-05-11T04:37:23.306Z,100929.63
2023-05-11T04:39:49.635Z,100926.91
2023-05-11T04:42:16.120Z,100930.44
2023-05-11T04:44:42.425Z,100940.53
2023-05-11T04:47:08.802Z,100942.78
2023-05-11T04:49:35.843Z,100943.03
2023-05-11T04:52:02.183Z,100949.03
2023-05-11T04:54:29.811Z,100946.09
2023-05-11T04:56:56.531Z,100944.41
2023-05-11T04:59:23.038Z,100944.94
2023-05-11T05:01:49.634Z,100955.41
2023-05-11T05:04:16.766Z,100957.88
2023-05-11T05:06:43.305Z,100957.59
2023-05-11T05:09:11.050Z,100955.16
2023-05-11T05:11:37.580Z,100958.19
2023-05-11T05:14:03.948Z,100958.25
2023-05-11T05:16:32.458Z,100960.44
2023-05-11T05:18:59.216Z,100959.63
2023-05-11T05:21:25.867Z,100968.06
2023-05-11T05:23:52.286Z,100968.13
2023-05-11T05:26:18.680Z,100971.44
2023-05-11T05:28:45.068Z,100973.09
2023-05-11T05:31:11.612Z,100967.94
2023-05-11T05:33:39.273Z,100976.69
2023-05-11T05:36:05.789Z,100965.53
2023-05-11T05:38:32.262Z,100979.22
2023-05-11T05:40:58.962Z,100978.09
2023-05-11T05:43:25.450Z,100976.50
2023-05-11T05:45:51.917Z,100987.78
2023-05-11T05:48:18.299Z,100989.13
2023-05-11T05:50:44.659Z,100986.41
2023-05-11T05:53:11.169Z,100991.63
2023-05-11T05:55:37.559Z,100992.44
2023-05-11T05:58:04.008Z,100994.00
2023-05-11T06:00:31.348Z,100991.50
2023-05-11T06:02:57.801Z,100991.81
2023-05-11T06:05:24.260Z,100993.50
2023-05-11T06:08:01.885Z,100992.97
2023-05-11T06:10:35.900Z,101001.13
2023-05-11T06:13:02.293Z,100998.41
2023-05-11T06:15:28.623Z,101006.06
2023-05-11T06:17:54.980Z,101004.41
2023-05-11T06:20:21.781Z,100998.94
2023-05-11T06:22:48.166Z,101002.25
2023-05-11T06:25:15.041Z,100996.28
2023-05-11T06:27:41.466Z,101000.13
2023-05-11T06:30:08.349Z,100996.88
2023-05-11T06:32:35.146Z,100996.38
2023-05-11T06:35:02.149Z,100997.50
2023-05-11T06:37:31.972Z,100997.44
2023-05-11T06:39:59.278Z,100992.00
2023-05-11T06:42:25.673Z,100999.97
2023-05-11T06:44:52.086Z,100995.88
2023-05-11T06:47:18.600Z,100999.16
2023-05-11T06:49:45.058Z,100994.25
2023-05-11T06:52:11.404Z,100994.25
2023-05-11T06:54:37.864Z,101003.81
2023-05-11T06:57:04.224Z,101004.41
2023-05-11T06:59:30.614Z,101003.03
2023-05-11T07:01:56.998Z,100999.84
2023-05-11T07:04:23.497Z,100996.56
2023-05-11T07:06:49.926Z,100995.81
2023-05-11T07:09:16.773Z,100997.75
2023-05-11T07:11:43.175Z,101003.81
2023-05-11T07:14:09.565Z,101002.16
2023-05-11T07:16:38.340Z,100992.03
2023-05-11T07:19:05.738Z,101000.53
2023-05-11T07:21:32.805Z,101002.78
2023-05-11T07:24:00.082Z,101003.31
2023-05-11T07:26:26.523Z,101000.06
2023-05-11T07:28:53.032Z,101010.44
2023-05-11T07:31:19.503Z,101001.44
2023-05-11T07:33:45.940Z,101010.47
2023-05-11T07:36:12.403Z,101009.38
2023-05-11T07:38:38.882Z,100998.44
2023-05-11T07:41:06.887Z,100998.44
2023-05-11T07:43:33.866Z,101007.19
2023-05-11T07:46:00.383Z,101012.38
2023-05-11T07:48:26.853Z,101004.72
2023-05-11T07:50:53.354Z,101004.97
2023-05-11T07:53:19.830Z,101004.97
2023-05-11T07:55:46.380Z,101003.88
2023-05-11T07:58:12.914Z,101009.34
2023-05-11T08:00:39.365Z,101009.63
2023-05-11T08:03:06.541Z,101010.44
2023-05-11T08:05:35.932Z,101010.47
2023-05-11T08:08:02.591Z,101009.63
2023-05-11T08:10:29.180Z,101008.00
2023-05-11T08:12:55.711Z,101001.72
2023-05-11T08:15:22.162Z,101006.63
2023-05-11T08:17:48.599Z,101011.00
2023-05-11T08:20:15.317Z,101008.31
2023-05-11T08:22:41.784Z,101006.09
2023-05-11T08:25:08.658Z,101011.88
2023-05-11T08:27:35.016Z,101007.47
2023-05-11T08:30:01.549Z,101014.31
2023-05-11T08:32:28.210Z,101012.69
2023-05-11T08:34:54.766Z,101006.66
2023-05-11T08:37:21.282Z,101005.00
2023-05-11T08:39:48.162Z,101008.84
2023-05-11T08:42:19.927Z,101006.66
2023-05-11T08:44:48.062Z,101005.56
2023-05-11T08:49:44.822Z,101008.84
2023-05-11T08:52:14.096Z,101010.53
2023-05-11T08:54:40.581Z,101016.81
2023-05-11T08:57:07.589Z,101015.41
2023-05-11T08:59:34.373Z,101018.44
2023-05-11T09:02:01.449Z,101010.53
2023-05-11T09:04:28.236Z,101012.13
2023-05-11T09:06:55.010Z,101016.56
2023-05-11T09:09:21.724Z,101020.63
2023-05-11T09:11:48.334Z,101014.59
2023-05-11T09:14:15.037Z,101004.47
2023-05-11T09:16:41.716Z,101003.34
2023-05-11T09:19:16.227Z,101011.03
2023-05-11T09:21:42.859Z,101003.03
2023-05-11T09:24:13.073Z,101011.53
2023-05-11T09:26:39.569Z,101003.28
2023-05-11T09:29:05.977Z,101014.22
2023-05-11T09:31:47.332Z,101012.06
2023-05-11T09:34:18.100Z,101008.47
2023-05-11T09:36:46.845Z,101014.53
2023-05-11T09:39:16.623Z,101013.19
2023-05-11T09:41:43.943Z,101003.59
2023-05-11T09:44:13.810Z,101005.53
2023-05-11T09:46:45.027Z,101006.06
2023-05-11T09:49:12.286Z,101007.97
2023-05-11T09:51:40.618Z,101001.38
2023-05-11T09:54:19.114Z,101007.63
2023-05-11T09:56:54.218Z,101008.16
2023-05-11T09:59:40.633Z,101008.41
2023-05-11T10:02:26.615Z,101008.06
2023-05-11T10:04:58.038Z,101002.34
2023-05-11T10:07:32.368Z,101004.03
2023-05-11T10:10:04.139Z,101008.13
2023-05-11T10:12:33.456Z,101010.00
2023-05-11T10:15:09.242Z,101010.00
2023-05-11T10:17:37.073Z,101005.34
2023-05-11T10:20:05.556Z,101003.31
2023-05-11T10:22:32.828Z,100999.75
2023-05-11T10:25:00.059Z,101003.34
2023-05-11T10:27:27.143Z,100990.69
2023-05-11T10:29:53.841Z,100994.78
2023-05-11T10:32:21.313Z,100992.28
2023-05-11T10:34:50.183Z,100990.28
2023-05-11T10:37:17.285Z,100983.66
2023-05-11T10:39:48.441Z,100987.44
2023-05-11T10:43:10.536Z,100987.94
2023-05-11T10:45:49.643Z,100996.19
2023-05-11T10:48:47.179Z,100990.72
2023-05-11T10:51:31.808Z,100987.16
2023-05-11T10:54:10.560Z,100985.22
2023-05-11T10:56:51.018Z,100984.72
2023-05-11T10:59:33.994Z,100989.38
2023-05-11T11:02:01.766Z,100983.91
2023-05-11T11:04:46.571Z,100987.19
2023-05-11T11:07:17.716Z,100986.38
2023-05-11T11:09:52.473Z,100993.25
2023-05-11T11:12:20.501Z,100991.88
2023-05-11T11:15:06.332Z,100987.78
2023-05-11T11:17:35.044Z,100989.22
2023-05-11T11:20:09.195Z,100983.25
2023-05-11T11:22:35.861Z,100985.91
2023-05-11T11:25:05.663Z,100990.78
2023-05-11T11:27:41.226Z,100977.59
2023-05-11T11:30:39.865Z,100977.84
2023-05-11T11:33:06.963Z,100975.91
2023-05-11T11:35:39.480Z,100981.38
2023-05-11T11:38:10.920Z,100976.72
2023-05-11T11:43:22.320Z,100975.41
2023-05-11T11:46:02.611Z,100975.19
2023-05-11T11:48:37.546Z,100972.13
2023-05-11T11:51:11.389Z,100972.63
2023-05-11T11:53:38.113Z,100974.75
2023-05-11T11:56:07.371Z,100967.59
2023-05-11T11:58:43.131Z,100969.25
2023-05-11T12:01:12.778Z,100975.03
2023-05-11T12:03:41.385Z,100970.06
2023-05-11T12:06:09.812Z,100968.34
2023-05-11T12:08:37.500Z,100972.44
2023-05-11T12:11:05.585Z,100979.00
2023-05-11T12:13:33.104Z,100970.78
2023-05-11T12:16:13.230Z,100976.25
2023-05-11T12:18:40.644Z,100966.84
2023-05-11T12:21:07.774Z,100969.50
2023-05-11T12:23:34.524Z,100963.66
2023-05-11T12:26:06.030Z,100968.28
2023-05-11T12:28:33.469Z,100962.72
2023-05-11T12:31:00.670Z,100958.81
2023-05-11T12:33:27.402Z,100951.09
2023-05-11T12:35:55.205Z,100954.56
2023-05-11T12:38:21.950Z,100946.59
2023-05-11T12:40:53.829Z,100955.38
2023-05-11T12:43:22.042Z,100955.88
2023-05-11T12:45:49.206Z,100947.59
2023-05-11T12:48:16.017Z,100944.00
2023-05-11T12:50:46.370Z,100935.72
2023-05-11T12:53:17.959Z,100936.75
2023-05-11T12:55:44.909Z,100943.66
2023-05-11T12:58:13.546Z,100926.81
2023-05-11T13:00:56.407Z,100927.66
2023-05-11T13:03:31.229Z,100920.50
2023-05-11T13:06:12.367Z,100926.22
2023-05-11T13:08:44.326Z,100917.50
2023-05-11T13:11:25.349Z,100925.00
2023-05-11T13:13:53.400Z,100917.22
2023-05-11T13:16:33.409Z,100923.81
2023-05-11T13:19:03.326Z,100921.91
2023-05-11T13:21:30.374Z,100927.84
2023-05-11T13:23:56.806Z,100927.84
2023-05-11T13:26:24.907Z,100927.31
2023-05-11T13:29:05.845Z,100928.94
2023-05-11T13:31:45.887Z,100926.31
2023-05-11T13:34:12.373Z,100931.22
2023-05-11T13:36:39.507Z,100931.97
2023-05-11T13:39:06.920Z,100918.16
2023-05-11T13:41:33.646Z,100928.13
2023-05-11T13:44:00.486Z,100921.34
2023-05-11T13:46:27.112Z,100921.47
2023-05-11T13:48:54.926Z,100918.25
2023-05-11T13:51:22.207Z,100914.16
2023-05-11T13:53:48.778Z,100921.34
2023-05-11T13:56:16.406Z,100918.09
2023-05-11T13:58:42.859Z,100912.88
2023-05-11T14:01:09.263Z,100916.31
2023-05-11T14:03:35.758Z,100918.84
2023-05-11T14:06:03.106Z,100921.63
2023-05-11T14:08:29.555Z,100910.97
2023-05-11T14:10:55.986Z,100919.84
2023-05-11T14:13:22.385Z,100913.81
2023-05-11T14:15:49.523Z,100916.03
2023-05-11T14:18:16.040Z,100914.97
2023-05-11T14:20:44.350Z,100917.75
2023-05-11T14:23:10.911Z,100914.22
2023-05-11T14:25:37.464Z,100915.03
2023-05-11T14:28:03.979Z,100913.94
2023-05-11T14:30:31.024Z,100915.34
2023-05-11T14:32:57.614Z,100915.28
2023-05-11T14:35:24.086Z,100912.81
2023-05-11T14:37:50.539Z,100919.34
2023-05-11T14:40:17.095Z,100917.72
2023-05-11T14:42:43.625Z,100915.53
2023-05-11T14:45:10.619Z,100913.84
2023-05-11T14:47:37.156Z,100917.78
2023-05-11T14:50:03.720Z,100910.63
2023-05-11T14:52:30.629Z,100909.28
2023-05-11T14:54:56.963Z,100909.00
2023-05-11T14:57:23.384Z,100908.47
2023-05-11T14:59:58.885Z,100902.34
2023-05-11T15:02:26.962Z,100901.25
2023-05-11T15:04:53.487Z,100899.25
2023-05-11T15:07:19.857Z,100909.16
2023-05-11T15:09:46.265Z,100904.75
2023-05-11T15:12:12.746Z,100909.44
2023-05-11T15:14:39.136Z,100907.28
2023-05-11T15:17:05.814Z,100908.38
2023-05-11T15:19:32.271Z,100910.88
2023-05-11T15:21:58.577Z,100913.28
2023-05-11T15:24:25.204Z,100910.59
2023-05-11T15:26:51.622Z,100907.31
2023-05-11T15:29:18.149Z,100915.78
2023-05-11T15:31:44.550Z,100911.16
2023-05-11T15:34:11.055Z,100916.63
2023-05-11T15:36:37.467Z,100919.16
2023-05-11T15:39:04.055Z,100920.22
2023-05-11T15:41:30.470Z,100921.31
2023-05-11T15:43:56.813Z,100914.47
2023-05-11T15:46:24.800Z,100919.16
2023-05-11T15:48:51.807Z,100921.66
2023-05-11T15:51:18.998Z,100925.00
2023-05-11T15:53:45.812Z,100923.34
2023-05-11T15:56:12.214Z,100932.13
2023-05-11T15:58:38.805Z,100932.19
2023-05-11T16:01:06.031Z,100933.91
2023-05-11T16:03:32.598Z,100937.25
2023-05-11T16:05:59.298Z,100944.72
2023-05-11T16:08:25.811Z,100933.03
2023-05-11T16:10:52.554Z,100936.91
2023-05-11T16:13:18.975Z,100939.75
2023-05-11T16:15:45.447Z,100934.81
2023-05-11T16:18:12.019Z,100935.41
2023-05-11T16:20:38.478Z,100934.59
2023-05-11T16:23:05.275Z,100930.72
2023-05-11T16:25:31.653Z,100933.22
2023-05-11T16:27:58.035Z,100934.59
2023-05-11T16:30:25.645Z,100932.13
2023-05-11T16:32:53.720Z,100934.03
2023-05-11T16:35:20.708Z,100938.63
2023-05-11T16:37:47.903Z,100932.66
2023-05-11T16:40:14.769Z,100930.75
2023-05-11T16:42:41.107Z,100933.78
2023-05-11T16:45:07.980Z,100939.28
2023-05-11T16:47:34.695Z,100933.00
2023-05-11T16:50:01.223Z,100936.56
2023-05-11T16:52:27.617Z,100933.28
2023-05-11T16:54:54.151Z,100934.97
2023-05-11T16:57:21.537Z,100935.47
2023-05-11T16:59:48.351Z,100939.31
2023-05-11T17:02:14.729Z,100929.19
2023-05-11T17:04:41.127Z,100936.28
2023-05-11T17:07:10.088Z,100933.81
2023-05-11T17:09:36.484Z,100936.56
2023-05-11T17:12:07.884Z,100928.88
2023-05-11T17:14:34.216Z,100945.03
2023-05-11T17:17:00.600Z,100941.78
2023-05-11T17:19:27.153Z,100939.59
2023-05-11T17:21:53.467Z,100939.59
2023-05-11T17:24:19.837Z,100934.69
2023-05-11T17:26:48.297Z,100938.22
2023-05-11T17:29:16.625Z,100938.22
2023-05-11T17:31:43.363Z,100936.59
2023-05-11T17:34:10.399Z,100938.22
2023-05-11T17:36:37.033Z,100932.75
2023-05-11T17:39:03.688Z,100935.78
2023-05-11T17:41:30.032Z,100938.50
2023-05-11T17:43:56.433Z,100939.31
2023-05-11T17:46:22.855Z,100940.44
2023-05-11T17:48:49.534Z,100944.25
2023-05-11T17:51:16.094Z,100942.63
2023-05-11T17:53:42.422Z,100942.34
2023-05-11T17:56:11.652Z,100939.34
2023-05-11T17:58:38.247Z,100933.03
2023-05-11T18:01:09.040Z,100947.28
2023-05-11T18:03:35.872Z,100951.34
2023-05-11T18:06:02.557Z,100943.16
2023-05-11T18:08:29.020Z,100941.50
2023-05-11T18:10:55.700Z,100938.22
2023-05-11T18:13:22.726Z,100940.16
2023-05-11T18:15:49.371Z,100943.44
2023-05-11T18:18:15.958Z,100943.69
2023-05-11T18:20:45.404Z,100946.47
2023-05-11T18:23:12.899Z,100938.25
2023-05-11T18:25:39.783Z,100944.00
2023-05-11T18:28:06.189Z,100949.75
2023-05-11T18:30:33.514Z,100951.38
2023-05-11T18:33:00.376Z,100949.72
2023-05-11T18:35:26.735Z,100956.00
2023-05-11T18:37:53.227Z,100948.63
2023-05-11T18:40:20.148Z,100953.00
2023-05-11T18:42:49.708Z,100943.69
2023-05-11T18:45:17.399Z,100951.94
2023-05-11T18:47:46.644Z,100960.13
2023-05-11T18:50:13.400Z,100949.44
2023-05-11T18:52:39.743Z,100959.56
2023-05-11T18:55:06.867Z,100959.03
2023-05-11T18:57:34.351Z,100965.59
2023-05-11T19:00:01.060Z,100964.50
2023-05-11T19:02:27.893Z,100963.41
2023-05-11T19:04:54.393Z,100967.81
2023-05-11T19:07:20.788Z,100970.00
2023-05-11T19:09:47.322Z,100969.44
2023-05-11T19:12:13.745Z,100978.19
2023-05-11T19:14:40.159Z,100975.19
2023-05-11T19:17:06.800Z,100984.75
2023-05-11T19:19:34.134Z,100976.56
2023-05-11T19:22:00.592Z,100989.69
2023-05-11T19:24:27.535Z,100987.22
2023-05-11T19:27:05.989Z,100984.75
2023-05-11T19:29:34.138Z,100991.88
2023-05-11T19:32:00.528Z,100991.88
2023-05-11T19:34:27.024Z,100989.41
2023-05-11T19:36:53.519Z,100985.84
2023-05-11T19:39:19.824Z,100992.69
2023-05-11T19:41:46.190Z,100986.66
2023-05-11T19:44:12.725Z,100992.44
2023-05-11T19:46:45.708Z,100993.50
2023-05-11T19:49:16.332Z,100996.25
2023-05-11T19:51:43.074Z,100990.78
2023-05-11T19:54:10.875Z,100998.44
2023-05-11T19:56:37.561Z,101002.81
2023-05-11T19:59:04.598Z,100994.63
2023-05-11T20:01:31.162Z,101003.91
2023-05-11T20:03:57.804Z,101006.09
2023-05-11T20:06:25.389Z,101002.81
2023-05-11T20:08:52.663Z,101009.63
2023-05-11T20:11:19.124Z,101005.53
2023-05-11T20:13:46.710Z,101006.34
2023-05-11T20:16:13.318Z,101004.72
2023-05-11T20:18:39.951Z,101007.44
2023-05-11T20:21:07.000Z,101002.25
2023-05-11T20:23:35.215Z,101010.47
2023-05-11T20:26:03.118Z,101002.78
2023-05-11T20:28:29.521Z,101011.28
2023-05-11T20:30:56.314Z,101006.63
2023-05-11T20:35:53.568Z,100997.31
2023-05-11T20:38:20.686Z,100995.69
2023-05-11T20:40:47.135Z,100998.97
2023-05-11T20:43:15.003Z,100999.25
2023-05-11T20:45:41.963Z,100994.88
2023-05-11T20:48:08.592Z,100990.22
2023-05-11T20:50:35.022Z,100988.56
2023-05-11T20:53:01.347Z,100988.56
2023-05-11T20:55:27.788Z,100985.28
2023-05-11T20:57:54.130Z,100991.84
2023-05-11T21:00:20.778Z,100991.81
2023-05-11T21:02:47.703Z,100994.03
2023-05-11T21:05:14.431Z,100989.13
2023-05-11T21:07:40.982Z,100989.94
2023-05-11T21:10:07.865Z,100992.13
2023-05-11T21:12:34.469Z,100987.47
2023-05-11T21:15:01.094Z,100986.91
2023-05-11T21:17:27.676Z,100992.09
2023-05-11T21:19:54.039Z,100986.34
2023-05-11T21:22:20.513Z,100985.81
2023-05-11T21:24:47.523Z,100983.63
2023-05-11T21:27:14.989Z,100982.25
2023-05-11T21:29:41.910Z,100989.09
2023-05-11T21:32:08.316Z,100972.69
2023-05-11T21:34:34.668Z,100987.47
2023-05-11T21:37:02.429Z,100986.91
2023-05-11T21:39:28.839Z,100984.44
2023-05-11T21:41:55.397Z,100989.34
2023-05-11T21:44:21.855Z,100978.41
2023-05-11T21:46:48.269Z,100972.97
2023-05-11T21:49:14.766Z,100971.59
2023-05-11T21:51:41.203Z,100970.50
2023-05-11T21:54:07.974Z,100980.91
2023-05-11T21:56:34.568Z,100969.41
2023-05-11T21:59:01.566Z,100966.66
2023-05-11T22:01:27.955Z,100969.41
2023-05-11T22:03:54.478Z,100976.53
2023-05-11T22:06:21.095Z,100973.22
2023-05-11T22:08:47.468Z,100973.22
2023-05-11T22:11:14.033Z,100969.97
2023-05-11T22:13:40.418Z,100965.03
2023-05-11T22:16:07.319Z,100969.13
2023-05-11T22:18:33.811Z,100962.00
2023-05-11T22:21:00.315Z,100969.66
2023-05-11T22:23:26.880Z,100969.66
2023-05-11T22:25:53.291Z,100963.38
2023-05-11T22:28:19.650Z,100967.78
2023-05-11T22:30:46.056Z,100963.38
2023-05-11T22:33:12.481Z,100968.03
2023-05-11T22:35:39.851Z,100957.63
2023-05-11T22:38:06.288Z,100968.03
2023-05-11T22:40:32.665Z,100959.56
2023-05-11T22:42:59.015Z,100956.81
2023-05-11T22:45:25.473Z,100960.09
2023-05-11T22:47:51.984Z,100960.38
2023-05-11T22:50:18.675Z,100958.47
2023-05-11T22:52:45.371Z,100961.75
2023-05-11T22:55:11.771Z,100953.53
2023-05-11T22:57:38.113Z,100951.63
2023-05-11T23:00:05.334Z,100957.34
2023-05-11T23:02:33.269Z,100947.25
2023-05-11T23:04:59.783Z,100949.69
2023-05-11T23:07:26.152Z,100946.97
2023-05-11T23:09:52.943Z,100943.13
2023-05-11T23:12:19.691Z,100946.16
2023-05-11T23:14:46.063Z,100946.97
2023-05-11T23:17:13.041Z,100945.31
2023-05-11T23:19:39.522Z,100940.94
2023-05-11T23:22:05.911Z,100944.50
2023-05-11T23:24:32.280Z,100942.06
2023-05-11T23:26:58.818Z,100937.66
2023-05-11T23:29:27.163Z,100941.78
2023-05-11T23:31:53.680Z,100933.31
2023-05-11T23:34:20.155Z,100941.22
2023-05-11T23:36:46.640Z,100934.38
2023-05-11T23:39:13.174Z,100932.75
2023-05-11T23:41:39.694Z,100927.81
2023-05-11T23:44:06.079Z,100924.00
2023-05-11T23:46:32.512Z,100924.53
2023-05-11T23:48:58.937Z,100922.09
2023-05-11T23:51:26.085Z,100922.91
2023-05-11T23:53:52.431Z,100916.31
2023-05-11T23:56:18.806Z,100919.59
2023-05-11T23:58:46.238Z,100919.06
